Time;durP1;ratioP1;P1;durP2;ratioP2;P2;SDS_P1;SDS_P2;PMS_P1;PMS_P2;Temp;Humidity;BMP_temperature;BMP_pressure;BME280_temperature;BME280_humidity;BME280_pressure;Samples;Min_cycle;Max_cycle;Signal;HPM_P1;HPM_P2
2022/11/26 00:02:17;;;;;;;25.20;5.47;;;;;;;-145.69;100.00;52678.09;5096607;28;20568;-80
2022/11/26 00:04:43;;;;;;;11.37;4.57;;;;;;;-145.69;100.00;52699.88;5097009;28;20206;-80
2022/11/26 00:07:11;;;;;;;14.20;4.30;;;;;;;-145.69;100.00;52719.66;5096358;28;20206;-80
2022/11/26 00:09:38;;;;;;;19.20;3.50;;;;;;;-145.69;100.00;52695.91;5096442;28;20289;-80
2022/11/26 00:12:15;;;;;;;15.10;3.70;;;;;;;-145.69;100.00;52705.81;5096583;28;20198;-80
2022/11/26 00:14:41;;;;;;;13.00;3.77;;;;;;;-145.69;100.00;52719.66;5097010;28;20198;-80
2022/11/26 00:17:12;;;;;;;14.40;3.73;;;;;;;-145.69;100.00;52670.16;5097188;28;20584;-80
2022/11/26 00:19:39;;;;;;;16.67;3.40;;;;;;;-145.69;100.00;52733.53;5096395;28;20194;-80
2022/11/26 00:22:07;;;;;;;21.60;3.63;;;;;;;-145.69;100.00;52721.66;5096661;28;20561;-80
2022/11/26 00:24:33;;;;;;;12.10;3.40;;;;;;;-145.69;100.00;52713.72;5096435;28;20198;-80
2022/11/26 00:27:00;;;;;;;18.27;4.00;;;;;;;-145.69;100.00;52737.50;5096400;28;20205;-79
2022/11/26 00:29:26;;;;;;;13.93;4.17;;;;;;;-145.69;100.00;52695.91;5095168;28;20236;-80
2022/11/26 00:31:53;;;;;;;13.83;3.60;;;;;;;-145.69;100.00;52737.50;5095718;28;20202;-80
2022/11/26 00:34:21;;;;;;;12.23;2.90;;;;;;;-145.69;100.00;52709.78;5095486;28;20226;-79
2022/11/26 00:36:48;;;;;;;14.30;2.73;;;;;;;-145.69;100.00;52711.75;5094966;28;20272;-80
2022/11/26 00:39:19;;;;;;;27.07;3.60;;;;;;;-145.69;100.00;52707.78;5095844;28;20213;-80
2022/11/26 00:41:48;;;;;;;11.57;2.90;;;;;;;-145.69;100.00;52687.97;5096894;28;20225;-80
2022/11/26 00:44:17;;;;;;;15.93;3.37;;;;;;;-145.69;100.00;52709.78;5095593;28;20201;-80
2022/11/26 00:46:44;;;;;;;13.23;3.40;;;;;;;-145.69;100.00;52711.75;5095516;28;20198;-80
2022/11/26 00:49:10;;;;;;;11.43;4.00;;;;;;;-145.69;100.00;52719.66;5095694;28;20201;-80
2022/11/26 00:51:39;;;;;;;13.90;4.33;;;;;;;-145.69;100.00;52727.59;5098632;28;20668;-80
2022/11/26 00:54:06;;;;;;;14.83;3.53;;;;;;;-145.69;100.00;52721.66;5093437;28;20198;-80
2022/11/26 00:56:33;;;;;;;11.03;3.53;;;;;;;-145.69;100.00;52725.63;5094259;28;20198;-80
2022/11/26 00:58:59;;;;;;;14.77;3.77;;;;;;;-145.69;100.00;52745.41;5096782;28;20680;-80
2022/11/26 01:01:27;;;;;;;14.53;3.60;;;;;;;-145.69;100.00;52725.63;5096368;28;20200;-80
2022/11/26 01:03:54;;;;;;;11.47;2.97;;;;;;;-145.69;100.00;52709.78;5099810;28;20206;-80
2022/11/26 01:06:23;;;;;;;16.47;3.77;;;;;;;-145.69;100.00;52713.72;5100617;28;20281;-80
2022/11/26 01:08:52;;;;;;;14.40;3.90;;;;;;;-145.69;100.00;52717.69;5097073;28;20213;-80
2022/11/26 01:11:21;;;;;;;24.97;4.10;;;;;;;-145.69;100.00;52701.84;5098592;28;20198;-80
2022/11/26 01:13:49;;;;;;;14.83;4.17;;;;;;;-145.69;100.00;52701.84;5097923;28;20201;-80
2022/11/26 01:16:20;;;;;;;12.90;3.17;;;;;;;-145.69;100.00;52701.84;5098908;28;20217;-80
2022/11/26 01:18:48;;;;;;;15.23;4.30;;;;;;;-145.69;100.00;52721.66;5098855;28;20252;-80
2022/11/26 01:21:15;;;;;;;14.93;4.13;;;;;;;-145.69;100.00;52729.56;5096864;28;20234;-80
2022/11/26 01:23:41;;;;;;;19.43;4.57;;;;;;;-145.69;100.00;52729.56;5098075;28;20208;-80
2022/11/26 01:26:15;;;;;;;17.17;4.13;;;;;;;-145.69;100.00;52697.88;5097289;28;20572;-80
2022/11/26 01:28:41;;;;;;;10.67;3.50;;;;;;;-145.69;100.00;52721.66;5096411;28;20224;-80
2022/11/26 01:31:14;;;;;;;12.43;4.53;;;;;;;-145.69;100.00;52697.88;5098212;28;20201;-80
2022/11/26 01:33:40;;;;;;;13.67;3.10;;;;;;;-145.69;100.00;52709.78;5078484;28;20223;-80
2022/11/26 01:36:19;;;;;;;13.20;3.67;;;;;;;-145.69;100.00;52719.66;5079315;28;20215;-80
2022/11/26 01:38:46;;;;;;;13.70;3.97;;;;;;;-145.69;100.00;52721.66;5096038;28;20240;-80
2022/11/26 01:41:19;;;;;;;9.33;3.00;;;;;;;-145.69;100.00;52682.03;5097856;28;20198;-80
2022/11/26 01:43:49;;;;;;;8.47;3.10;;;;;;;-145.69;100.00;52695.91;5097745;28;20293;-80
2022/11/26 01:46:17;;;;;;;8.98;3.20;;;;;;;-145.69;100.00;52721.66;5097787;28;20437;-80
2022/11/26 01:48:45;;;;;;;5.77;3.00;;;;;;;-145.69;100.00;52684.03;5097338;28;20209;-80
2022/11/26 01:51:12;;;;;;;10.93;3.10;;;;;;;-145.69;100.00;52705.81;5097179;28;20808;-80
2022/11/26 01:53:47;;;;;;;11.97;3.77;;;;;;;-145.69;100.00;52676.09;5097021;28;20280;-80
2022/11/26 01:56:20;;;;;;;13.37;3.37;;;;;;;-145.69;100.00;52676.09;5096863;28;20200;-80
2022/11/26 01:58:51;;;;;;;14.70;3.23;;;;;;;-145.69;100.00;52725.63;5083654;28;20226;-80
2022/11/26 02:01:19;;;;;;;17.17;2.50;;;;;;;-145.69;100.00;52717.69;5075243;28;20223;-80
2022/11/26 02:03:53;;;;;;;13.67;3.13;;;;;;;-145.69;100.00;52725.63;5073727;28;20297;-80
2022/11/26 02:06:25;;;;;;;12.17;2.97;;;;;;;-145.69;100.00;52705.81;5073060;28;20561;-81
2022/11/26 02:08:52;;;;;;;13.30;3.20;;;;;;;-145.69;100.00;52701.84;5091811;28;20225;-79
2022/11/26 02:11:23;;;;;;;10.53;2.60;;;;;;;-145.69;100.00;52682.03;5092873;28;20251;-80
2022/11/26 02:13:52;;;;;;;8.23;2.50;;;;;;;-145.69;100.00;52680.06;5092887;28;20289;-79
2022/11/26 02:16:49;;;;;;;9.70;2.37;;;;;;;-145.69;100.00;52697.88;5094619;28;20231;-80
2022/11/26 02:20:03;;;;;;;13.93;3.03;;;;;;;-145.69;100.00;52729.56;5097156;28;20290;-79
2022/11/26 02:23:02;;;;;;;14.97;3.33;;;;;;;-145.69;100.00;52699.88;5097214;28;20288;-80
2022/11/26 02:25:45;;;;;;;17.23;3.93;;;;;;;-145.69;100.00;52715.72;5095996;28;20776;-79
2022/11/26 02:28:31;;;;;;;9.80;2.50;;;;;;;-145.69;100.00;52711.75;5097365;28;21114;-80
2022/11/26 02:31:05;;;;;;;12.37;2.27;;;;;;;-145.69;100.00;52670.16;5097718;28;20225;-80
2022/11/26 02:33:40;;;;;;;8.77;2.00;;;;;;;-145.69;100.00;52709.78;5096609;28;20249;-79
2022/11/26 02:36:12;;;;;;;19.23;2.87;;;;;;;-145.69;100.00;52691.94;5097027;28;20239;-80
2022/11/26 02:38:39;;;;;;;12.13;2.53;;;;;;;-145.69;100.00;52703.81;5096906;28;20230;-80
2022/11/26 02:41:06;;;;;;;6.70;2.10;;;;;;;-145.69;100.00;52687.97;5097091;28;20210;-80
2022/11/26 02:43:35;;;;;;;15.10;2.10;;;;;;;-145.69;100.00;52682.03;5095905;28;20191;-78
2022/11/26 02:46:09;;;;;;;10.77;2.50;;;;;;;-145.69;100.00;52682.03;5096908;28;20244;-79
2022/11/26 02:48:39;;;;;;;8.47;2.40;;;;;;;-145.69;100.00;52676.09;5096495;28;20675;-79
2022/11/26 02:51:10;;;;;;;6.07;2.30;;;;;;;-145.69;100.00;52709.78;5096536;28;20198;-79
2022/11/26 02:53:38;;;;;;;8.27;2.47;;;;;;;-145.69;100.00;52705.81;5096025;28;20202;-79
2022/11/26 02:56:08;;;;;;;9.73;2.63;;;;;;;-145.69;100.00;52686.00;5095997;28;20674;-79
2022/11/26 02:58:36;;;;;;;8.03;2.57;;;;;;;-145.69;100.00;52674.13;5096224;28;20233;-79
2022/11/26 03:01:09;;;;;;;5.80;2.40;;;;;;;-145.69;100.00;52672.13;5096302;28;20198;-79
2022/11/26 03:03:39;;;;;;;8.20;2.53;;;;;;;-145.69;100.00;52725.63;5095929;28;20676;-79
2022/11/26 03:06:08;;;;;;;5.80;2.57;;;;;;;-145.69;100.00;52674.13;5095906;28;20284;-79
2022/11/26 03:08:36;;;;;;;10.77;2.33;;;;;;;-145.69;100.00;52721.66;5095779;28;20566;-79
2022/11/26 03:11:04;;;;;;;12.70;2.63;;;;;;;-145.69;100.00;52691.94;5095258;28;20200;-79
2022/11/26 03:13:31;;;;;;;6.83;2.67;;;;;;;-145.69;100.00;52723.63;5096365;28;20308;-79
2022/11/26 03:15:58;;;;;;;14.07;2.30;;;;;;;-145.69;100.00;52709.78;5096146;28;20198;-79
2022/11/26 03:18:26;;;;;;;9.23;2.43;;;;;;;-145.69;100.00;52687.97;5095247;28;20222;-79
2022/11/26 03:20:53;;;;;;;7.97;2.07;;;;;;;-145.69;100.00;52711.75;5095802;28;20202;-79
2022/11/26 03:23:19;;;;;;;8.83;2.80;;;;;;;-145.69;100.00;52725.63;5095667;28;20564;-80
2022/11/26 03:25:46;;;;;;;11.00;2.93;;;;;;;-145.69;100.00;52711.75;5096173;28;20198;-79
2022/11/26 03:28:13;;;;;;;14.13;2.53;;;;;;;-145.69;100.00;52697.88;5095665;28;20293;-79
2022/11/26 03:30:39;;;;;;;13.07;2.40;;;;;;;-145.69;100.00;52713.72;5095791;28;20209;-79
2022/11/26 03:33:06;;;;;;;13.77;2.20;;;;;;;-145.69;100.00;52701.84;5095445;28;20697;-80
2022/11/26 03:35:33;;;;;;;7.50;1.90;;;;;;;-145.69;100.00;52695.91;5095663;28;20198;-79
2022/11/26 03:38:00;;;;;;;7.53;2.50;;;;;;;-145.69;100.00;52705.81;5095559;28;20240;-79
2022/11/26 03:40:26;;;;;;;16.67;2.83;;;;;;;-145.69;100.00;52703.81;5095413;28;20554;-79
2022/11/26 03:42:53;;;;;;;9.63;2.37;;;;;;;-145.69;100.00;52707.78;5095406;28;20702;-79
2022/11/26 03:45:19;;;;;;;10.63;2.87;;;;;;;-145.69;100.00;52697.88;5094927;28;20190;-79
2022/11/26 03:47:46;;;;;;;11.83;2.70;;;;;;;-145.69;100.00;52678.09;5095394;28;20209;-80
2022/11/26 03:50:12;;;;;;;15.20;2.53;;;;;;;-145.69;100.00;52691.94;5095053;28;20240;-79
2022/11/26 03:52:40;;;;;;;13.60;3.33;;;;;;;-145.69;100.00;52680.06;5082851;28;20207;-79
2022/11/26 03:55:08;;;;;;;16.20;2.90;;;;;;;-145.69;100.00;52678.09;5078251;28;20657;-80
2022/11/26 03:57:34;;;;;;;10.77;2.67;;;;;;;-145.69;100.00;52721.66;5095791;28;20496;-80
2022/11/26 04:00:01;;;;;;;7.83;2.43;;;;;;;-145.69;100.00;52709.78;5096164;28;20555;-80
2022/11/26 04:02:28;;;;;;;11.07;2.50;;;;;;;-145.69;100.00;52686.00;5096958;28;20292;-80
2022/11/26 04:04:54;;;;;;;18.03;2.70;;;;;;;-145.69;100.00;52721.66;5096057;28;20198;-79
2022/11/26 04:07:21;;;;;;;11.23;2.97;;;;;;;-145.69;100.00;52672.13;5097666;28;20204;-80
2022/11/26 04:09:49;;;;;;;11.37;2.80;;;;;;;-145.69;100.00;52715.72;5097600;28;20315;-80
2022/11/26 04:12:15;;;;;;;12.50;3.20;;;;;;;-145.69;100.00;52701.84;5098077;28;20205;-80
2022/11/26 04:14:42;;;;;;;7.50;2.50;;;;;;;-145.69;100.00;52691.94;5098120;28;20198;-80
2022/11/26 04:17:08;;;;;;;7.50;2.53;;;;;;;-145.69;100.00;52711.75;5097870;28;20198;-80
2022/11/26 04:19:35;;;;;;;9.47;2.57;;;;;;;-145.69;100.00;52686.00;5097186;28;20213;-80
2022/11/26 04:22:01;;;;;;;8.07;2.13;;;;;;;-145.69;100.00;52701.84;5097153;28;20652;-80
2022/11/26 04:24:28;;;;;;;12.87;2.57;;;;;;;-145.69;100.00;52687.97;5096702;28;20198;-81
2022/11/26 04:26:56;;;;;;;10.90;2.53;;;;;;;-145.69;100.00;52693.94;5096687;28;20202;-80
2022/11/26 04:29:22;;;;;;;11.37;2.60;;;;;;;-145.69;100.00;52676.09;5096320;28;20225;-80
2022/11/26 04:31:49;;;;;;;12.27;2.70;;;;;;;-145.69;100.00;52701.84;5096089;28;20649;-80
2022/11/26 04:34:15;;;;;;;10.67;2.50;;;;;;;-145.69;100.00;52717.69;5096627;28;20234;-80
2022/11/26 04:36:42;;;;;;;15.13;3.03;;;;;;;-145.69;100.00;52686.00;5096276;28;20190;-80
2022/11/26 04:39:08;;;;;;;7.47;2.43;;;;;;;-145.69;100.00;52713.72;5095666;28;20226;-80
2022/11/26 04:41:35;;;;;;;8.70;2.60;;;;;;;-145.69;100.00;52686.00;5095402;28;20565;-80
2022/11/26 04:44:03;;;;;;;6.27;2.50;;;;;;;-145.69;100.00;52693.94;5094918;28;20190;-80
2022/11/26 04:46:29;;;;;;;7.07;2.30;;;;;;;-145.69;100.00;52709.78;5096641;28;20209;-78
2022/11/26 04:48:56;;;;;;;12.20;2.93;;;;;;;-145.69;100.00;52723.63;5095759;28;20209;-80
2022/11/26 04:51:22;;;;;;;10.93;3.03;;;;;;;-145.69;100.00;52713.72;5094380;28;20202;-80
2022/11/26 04:53:49;;;;;;;8.03;2.67;;;;;;;-145.69;100.00;52707.78;5094328;28;20195;-80
2022/11/26 04:56:15;;;;;;;11.77;2.73;;;;;;;-145.69;100.00;52693.94;5095850;28;20213;-79
2022/11/26 04:58:42;;;;;;;15.67;3.27;;;;;;;-145.69;100.00;52680.06;5095560;28;20233;-80
2022/11/26 05:01:10;;;;;;;13.90;2.93;;;;;;;-145.69;100.00;52715.72;5096894;28;20198;-79
2022/11/26 05:03:36;;;;;;;10.63;3.03;;;;;;;-145.69;100.00;52693.94;5097298;28;20289;-80
2022/11/26 05:06:03;;;;;;;8.53;2.73;;;;;;;-145.69;100.00;52699.88;5096032;28;20193;-80
2022/11/26 05:08:30;;;;;;;9.93;3.53;;;;;;;-145.69;100.00;52721.66;5096481;28;20198;-81
2022/11/26 05:10:59;;;;;;;17.10;2.87;;;;;;;-145.69;100.00;52715.72;5095083;28;20202;-80
2022/11/26 05:13:26;;;;;;;9.73;3.00;;;;;;;-145.69;100.00;52699.88;5094487;28;20583;-80
2022/11/26 05:15:53;;;;;;;7.70;2.70;;;;;;;-145.69;100.00;52711.75;5094542;28;20206;-80
2022/11/26 05:18:20;;;;;;;11.47;2.80;;;;;;;-145.69;100.00;52687.97;5095007;28;20224;-80
2022/11/26 05:20:47;;;;;;;8.73;2.60;;;;;;;-145.69;100.00;52674.13;5095367;28;20281;-80
2022/11/26 05:23:14;;;;;;;12.07;2.50;;;;;;;-145.69;100.00;52666.19;5095388;28;20201;-79
2022/11/26 05:25:40;;;;;;;6.73;2.30;;;;;;;-145.69;100.00;52687.97;5094607;28;20206;-80
2022/11/26 05:28:07;;;;;;;9.90;1.90;;;;;;;-145.69;100.00;52684.03;5093891;28;20652;-80
2022/11/26 05:30:34;;;;;;;12.17;3.03;;;;;;;-145.69;100.00;52719.66;5094362;28;20213;-80
2022/11/26 05:33:00;;;;;;;12.33;2.90;;;;;;;-145.69;100.00;52719.66;5093426;28;20656;-80
2022/11/26 05:35:28;;;;;;;7.03;2.27;;;;;;;-145.69;100.00;52713.72;5093324;28;20191;-80
2022/11/26 05:37:55;;;;;;;7.83;2.30;;;;;;;-145.69;100.00;52721.66;5092879;28;20221;-80
2022/11/26 05:40:21;;;;;;;10.33;2.17;;;;;;;-145.69;100.00;52735.50;5093700;28;20570;-80
2022/11/26 05:42:48;;;;;;;13.03;2.20;;;;;;;-145.69;100.00;52731.56;5093396;28;20206;-80
2022/11/26 05:45:15;;;;;;;5.63;2.10;;;;;;;-145.69;100.00;52717.69;5093919;28;20190;-80
2022/11/26 05:47:41;;;;;;;7.03;2.87;;;;;;;-145.69;100.00;52731.56;5094907;28;20198;-80
2022/11/26 05:50:09;;;;;;;9.27;2.80;;;;;;;-145.69;100.00;52725.63;5094766;28;20209;-80
2022/11/26 05:52:37;;;;;;;9.90;3.37;;;;;;;-145.69;100.00;52727.59;5093906;28;20587;-80
2022/11/26 05:55:04;;;;;;;15.63;2.90;;;;;;;-145.69;100.00;52725.63;5094534;28;20202;-80
2022/11/26 05:57:30;;;;;;;5.57;2.27;;;;;;;-145.69;100.00;52713.72;5093748;28;20201;-79
2022/11/26 05:59:57;;;;;;;11.43;2.87;;;;;;;-145.69;100.00;52729.56;5076819;28;20237;-79
2022/11/26 06:02:23;;;;;;;12.43;2.57;;;;;;;-145.69;100.00;52737.50;5074172;28;20213;-80
2022/11/26 06:04:50;;;;;;;14.17;3.20;;;;;;;-145.69;100.00;52733.53;5075178;28;20201;-79
2022/11/26 06:07:16;;;;;;;25.10;3.50;;;;;;;-145.69;100.00;52737.50;5093228;28;20198;-79
2022/11/26 06:09:44;;;;;;;14.97;2.97;;;;;;;-145.69;100.00;52727.59;5094316;28;20194;-79
2022/11/26 06:12:11;;;;;;;14.77;3.87;;;;;;;-145.69;100.00;52713.72;5093730;28;20549;-80
2022/11/26 06:14:37;;;;;;;3.53;2.63;;;;;;;-145.69;100.00;52745.41;5094478;28;20202;-80
2022/11/26 06:17:04;;;;;;;20.30;3.13;;;;;;;-145.69;100.00;52743.44;5094323;28;20675;-80
2022/11/26 06:19:30;;;;;;;51.97;16.10;;;;;;;-145.69;100.00;52717.69;5093199;28;20230;-80
2022/11/26 06:21:57;;;;;;;17.23;4.63;;;;;;;-145.69;100.00;52703.81;5092279;28;20202;-80
2022/11/26 06:24:23;;;;;;;12.63;3.93;;;;;;;-145.69;100.00;52723.63;5093044;28;20195;-79
2022/11/26 06:26:51;;;;;;;10.73;3.20;;;;;;;-145.69;100.00;52725.63;5092803;28;20190;-80
2022/11/26 06:29:18;;;;;;;18.60;5.87;;;;;;;-145.69;100.00;52711.75;5092999;28;20655;-80
2022/11/26 06:31:44;;;;;;;13.00;5.13;;;;;;;-145.69;100.00;52721.66;5093013;28;20197;-80
2022/11/26 06:34:11;;;;;;;12.83;4.07;;;;;;;-145.69;100.00;52729.56;5093378;28;20592;-80
2022/11/26 06:36:37;;;;;;;12.60;5.17;;;;;;;-145.69;100.00;52727.59;5092574;28;20190;-80
2022/11/26 06:39:04;;;;;;;15.20;5.73;;;;;;;-145.69;100.00;52733.53;5092979;28;20226;-80
2022/11/26 06:41:30;;;;;;;12.60;3.57;;;;;;;-145.69;100.00;52719.66;5092621;28;20191;-79
2022/11/26 06:43:59;;;;;;;7.93;3.27;;;;;;;-145.69;100.00;52713.72;5092611;28;20564;-79
2022/11/26 06:46:26;;;;;;;14.97;5.00;;;;;;;-145.69;100.00;52741.47;5092548;28;20198;-79
2022/11/26 06:48:52;;;;;;;18.63;7.17;;;;;;;-145.69;100.00;52686.00;5092908;28;20194;-79
2022/11/26 06:51:20;;;;;;;16.20;4.13;;;;;;;-145.69;100.00;52709.78;5092321;28;20599;-79
2022/11/26 06:53:47;;;;;;;13.17;4.00;;;;;;;-145.69;100.00;52693.94;5092367;28;20663;-79
2022/11/26 06:56:15;;;;;;;22.50;4.53;;;;;;;-145.69;100.00;52693.94;5092506;28;20194;-79
2022/11/26 06:58:41;;;;;;;10.77;3.23;;;;;;;-145.69;100.00;52725.63;5093038;28;20612;-80
2022/11/26 07:01:11;;;;;;;10.23;3.53;;;;;;;-145.69;100.00;52721.66;5093229;28;20212;-80
2022/11/26 07:03:38;;;;;;;16.03;6.77;;;;;;;-145.69;100.00;52743.44;5096480;28;20311;-79
2022/11/26 07:06:05;;;;;;;20.83;5.93;;;;;;;-145.69;100.00;52713.72;5096623;28;20190;-79
2022/11/26 07:08:32;;;;;;;13.20;3.93;;;;;;;-145.69;100.00;52733.53;5097292;28;20221;-79
2022/11/26 07:11:01;;;;;;;73.93;25.97;;;;;;;-145.69;100.00;52743.44;5097556;28;20194;-80
2022/11/26 07:13:28;;;;;;;92.83;36.83;;;;;;;-145.69;100.00;52733.53;5097183;28;20559;-79
2022/11/26 07:15:54;;;;;;;18.30;5.07;;;;;;;-145.69;100.00;52713.72;5097261;28;20191;-79
2022/11/26 07:18:22;;;;;;;13.53;4.20;;;;;;;-145.69;100.00;52729.56;5097466;28;20198;-79
2022/11/26 07:20:49;;;;;;;10.83;3.80;;;;;;;-145.69;100.00;52697.88;5097449;28;20198;-79
2022/11/26 07:23:15;;;;;;;18.70;5.47;;;;;;;-145.69;100.00;52709.78;5096713;28;20441;-80
2022/11/26 07:25:42;;;;;;;12.03;3.43;;;;;;;-145.69;100.00;52737.50;5097265;28;20202;-80
2022/11/26 07:28:08;;;;;;;9.90;3.20;;;;;;;-145.69;100.00;52721.66;5096740;28;20288;-79
2022/11/26 07:30:35;;;;;;;11.60;5.20;;;;;;;-145.69;100.00;52725.63;5096842;28;20206;-80
2022/11/26 07:33:01;;;;;;;9.57;4.17;;;;;;;-145.69;100.00;52717.69;5095780;28;20317;-79
2022/11/26 07:35:31;;;;;;;10.27;4.90;;;;;;;-145.69;100.00;52747.41;5095486;28;20230;-79
2022/11/26 07:37:58;;;;;;;11.40;3.20;;;;;;;-145.69;100.00;52691.94;5095647;28;20205;-79
2022/11/26 07:40:25;;;;;;;8.87;3.10;;;;;;;-145.69;100.00;52709.78;5095186;28;20237;-80
2022/11/26 07:42:51;;;;;;;12.63;3.50;;;;;;;-145.69;100.00;52709.78;5095734;28;20202;-79
2022/11/26 07:45:18;;;;;;;13.63;3.27;;;;;;;-145.69;100.00;52725.63;5095448;28;20191;-79
2022/11/26 07:47:44;;;;;;;7.03;3.27;;;;;;;-145.69;100.00;52727.59;5095716;28;20198;-76
2022/11/26 07:50:11;;;;;;;16.67;4.20;;;;;;;-145.69;100.00;52687.97;5097099;28;20194;-79
2022/11/26 07:52:39;;;;;;;5.97;2.90;;;;;;;-145.69;100.00;52723.63;5096473;28;20202;-79
2022/11/26 07:55:06;;;;;;;4.63;2.40;;;;;;;-145.69;100.00;52717.69;5096227;28;20202;-79
2022/11/26 07:57:32;;;;;;;6.57;3.33;;;;;;;-145.69;100.00;52662.22;5095717;28;20205;-80
2022/11/26 07:59:59;;;;;;;9.23;2.20;;;;;;;-145.69;100.00;52737.50;5087530;28;20233;-80
2022/11/26 08:02:25;;;;;;;9.47;5.13;;;;;;;-145.69;100.00;52709.78;5075806;28;20213;-80
2022/11/26 08:04:52;;;;;;;9.73;2.43;;;;;;;-145.69;100.00;52693.94;5076191;28;20289;-80
2022/11/26 08:07:18;;;;;;;3.43;2.00;;;;;;;-145.69;100.00;52715.72;5089242;28;20201;-79
2022/11/26 08:09:46;;;;;;;13.00;2.40;;;;;;;-145.69;100.00;52709.78;5096395;28;20226;-80
2022/11/26 08:12:13;;;;;;;4.87;1.90;;;;;;;-145.69;100.00;52672.13;5096143;28;20224;-79
2022/11/26 08:14:39;;;;;;;6.30;2.30;;;;;;;-145.69;100.00;52701.84;5094357;28;20568;-81
2022/11/26 08:17:06;;;;;;;5.18;2.35;;;;;;;-145.69;100.00;52693.94;5094434;28;20443;-80
2022/11/26 08:19:32;;;;;;;9.67;2.50;;;;;;;-145.69;100.00;52739.47;5075297;28;20223;-80
2022/11/26 08:21:59;;;;;;;5.30;1.57;;;;;;;-145.69;100.00;52682.03;5084381;28;20199;-80
2022/11/26 08:24:25;;;;;;;3.87;2.03;;;;;;;-145.69;100.00;52703.81;5075821;28;20205;-80
2022/11/26 08:26:53;;;;;;;5.27;2.40;;;;;;;-145.69;100.00;52705.81;5075144;28;20203;-80
2022/11/26 08:29:20;;;;;;;6.23;2.20;;;;;;;-145.69;100.00;52701.84;5075931;28;20565;-80
2022/11/26 08:31:47;;;;;;;5.47;2.50;;;;;;;-145.69;100.00;52691.94;5075780;28;20650;-80
2022/11/26 08:34:15;;;;;;;9.53;2.63;;;;;;;-145.69;100.00;52686.00;5092631;28;20596;-80
2022/11/26 08:36:42;;;;;;;12.13;2.50;;;;;;;-145.69;100.00;52697.88;5096039;28;20313;-80
2022/11/26 08:39:11;;;;;;;7.60;2.67;;;;;;;-145.69;100.00;52686.00;5095779;28;20225;-80
2022/11/26 08:41:38;;;;;;;12.20;2.80;;;;;;;-145.69;100.00;52715.72;5096137;28;20213;-80
2022/11/26 08:44:06;;;;;;;6.53;2.13;;;;;;;-145.69;100.00;52713.72;5094462;28;20198;-79
2022/11/26 08:46:32;;;;;;;10.50;2.03;;;;;;;-145.69;100.00;52701.84;5073826;28;20213;-79
2022/11/26 08:48:59;;;;;;;5.37;2.40;;;;;;;-145.69;100.00;52699.88;5074479;28;20206;-79
2022/11/26 08:51:25;;;;;;;13.07;2.33;;;;;;;-145.69;100.00;52741.47;5073809;28;20198;-79
2022/11/26 08:53:52;;;;;;;7.00;2.07;;;;;;;-145.69;100.00;52705.81;5074417;28;20202;-81
2022/11/26 08:56:18;;;;;;;8.47;1.93;;;;;;;-145.69;100.00;52699.88;5075878;28;20230;-79
2022/11/26 08:58:47;;;;;;;9.03;2.40;;;;;;;-145.69;100.00;52695.91;5093777;28;20667;-79
2022/11/26 09:01:17;;;;;;;5.97;1.80;;;;;;;-145.69;100.00;52715.72;5093629;28;20198;-79
2022/11/26 09:03:44;;;;;;;10.33;2.40;;;;;;;-145.69;100.00;52707.78;5093991;28;20194;-79
2022/11/26 09:06:10;;;;;;;6.07;2.00;;;;;;;-145.69;100.00;52719.66;5092909;28;20200;-79
2022/11/26 09:09:11;;;;;;;11.53;2.43;;;;;;;-145.69;100.00;52697.88;5093410;28;20197;-80
2022/11/26 09:11:26;;;;;;;6.57;2.30;;;;;;;-145.69;100.00;52705.81;5093277;28;20255;-79
2022/11/26 09:13:53;;;;;;;10.27;2.60;;;;;;;-145.69;100.00;52678.09;5093443;28;20198;-79
2022/11/26 09:16:21;;;;;;;8.60;2.33;;;;;;;-145.69;100.00;52705.81;5093116;28;20196;-79
2022/11/26 09:18:47;;;;;;;11.73;2.50;;;;;;;-145.69;100.00;52697.88;5092950;28;20202;-79
2022/11/26 09:21:14;;;;;;;11.37;2.53;;;;;;;-145.69;100.00;52737.50;5093496;28;20236;-79
2022/11/26 09:23:40;;;;;;;10.07;2.67;;;;;;;-145.69;100.00;52676.09;5093294;28;20198;-78
2022/11/26 09:26:07;;;;;;;10.20;2.40;;;;;;;-145.69;100.00;52674.13;5093826;28;20206;-80
2022/11/26 09:28:33;;;;;;;14.57;2.60;;;;;;;-145.69;100.00;52686.00;5092525;28;20675;-79
2022/11/26 09:31:01;;;;;;;12.70;2.63;;;;;;;-145.69;100.00;52695.91;5093509;28;20205;-79
2022/11/26 09:33:30;;;;;;;9.93;2.77;;;;;;;-145.69;100.00;52691.94;5093365;28;20237;-79
2022/11/26 09:36:04;;;;;;;12.50;2.50;;;;;;;-145.69;100.00;52699.88;5093423;28;20210;-79
2022/11/26 09:38:30;;;;;;;16.67;2.57;;;;;;;-145.69;100.00;52701.84;5092880;28;20206;-78
2022/11/26 09:41:04;;;;;;;11.27;3.13;;;;;;;-145.69;100.00;52686.00;5092898;28;20222;-79
2022/11/26 09:43:42;;;;;;;12.03;2.63;;;;;;;-145.69;100.00;52693.94;5093319;28;20661;-79
2022/11/26 09:46:11;;;;;;;12.17;2.43;;;;;;;-145.69;100.00;52715.72;5092821;28;20576;-78
2022/11/26 09:48:42;;;;;;;10.17;2.33;;;;;;;-145.69;100.00;52697.88;5092977;28;20209;-78
2022/11/26 09:51:13;;;;;;;24.40;6.83;;;;;;;-145.69;100.00;52678.09;5093235;28;20213;-78
2022/11/26 09:53:44;;;;;;;9.40;3.00;;;;;;;-145.69;100.00;52676.09;5092964;28;20194;-78
2022/11/26 09:56:16;;;;;;;9.87;3.23;;;;;;;-145.69;100.00;52670.16;5092680;28;20209;-78
2022/11/26 09:58:48;;;;;;;11.97;2.60;;;;;;;-145.69;100.00;52701.84;5092848;28;20208;-78
2022/11/26 10:01:21;;;;;;;11.30;2.40;;;;;;;-145.69;100.00;52687.97;5092558;28;20222;-79
2022/11/26 10:03:51;;;;;;;8.23;1.50;;;;;;;-145.69;100.00;52670.16;5092771;28;20187;-79
2022/11/26 10:06:30;;;;;;;7.37;1.80;;;;;;;-145.69;100.00;52676.09;5077344;28;20190;-79
2022/11/26 10:09:17;;;;;;;10.37;1.97;;;;;;;-145.69;100.00;52705.81;5091487;28;20641;-78
2022/11/26 10:11:54;;;;;;;12.17;1.80;;;;;;;-145.69;100.00;52674.13;5092724;28;20250;-78
2022/11/26 10:14:33;;;;;;;15.17;1.97;;;;;;;-145.69;100.00;52680.06;5092695;28;20197;-77
2022/11/26 10:17:18;;;;;;;13.47;2.00;;;;;;;-145.69;100.00;52682.03;5092810;28;20201;-78
2022/11/26 10:20:00;;;;;;;9.03;2.10;;;;;;;-145.69;100.00;52662.22;5092378;28;20224;-78
2022/11/26 10:22:32;;;;;;;11.00;2.47;;;;;;;-145.69;100.00;52672.13;5092735;28;20194;-77
2022/11/26 10:25:00;;;;;;;13.53;2.57;;;;;;;-145.69;100.00;52668.19;5092827;28;20209;-77
2022/11/26 10:27:32;;;;;;;7.07;2.53;;;;;;;-145.69;100.00;52674.13;5092421;28;20645;-78
2022/11/26 10:30:01;;;;;;;10.10;1.77;;;;;;;-145.69;100.00;52674.13;5092416;28;20206;-77
2022/11/26 10:32:34;;;;;;;8.30;2.30;;;;;;;-145.69;100.00;52693.94;5092051;28;20676;-78
2022/11/26 10:35:02;;;;;;;8.50;2.27;;;;;;;-145.69;100.00;52687.97;5092574;28;20225;-78
2022/11/26 10:37:29;;;;;;;10.90;2.17;;;;;;;-145.69;100.00;52654.31;5094363;28;20548;-78
2022/11/26 10:40:00;;;;;;;11.20;2.05;;;;;;;-145.69;100.00;52701.84;5095764;28;20444;-79
2022/11/26 10:42:26;;;;;;;11.10;2.27;;;;;;;-145.69;100.00;52678.09;5096867;28;20204;-79
2022/11/26 10:44:53;;;;;;;10.63;1.93;;;;;;;-145.69;100.00;52630.53;5095024;28;20211;-79
2022/11/26 10:47:26;;;;;;;15.43;2.87;;;;;;;-145.69;100.00;52658.28;5093382;28;20202;-78
2022/11/26 10:49:54;;;;;;;19.13;2.37;;;;;;;-145.69;100.00;52686.00;5094624;28;20198;-79
2022/11/26 10:52:26;;;;;;;8.87;2.53;;;;;;;-145.69;100.00;52618.66;5094357;28;20239;-79
2022/11/26 10:55:18;;;;;;;8.20;1.93;;;;;;;-145.69;100.00;52646.41;5096364;28;20537;-79
2022/11/26 10:57:50;;;;;;;13.90;2.70;;;;;;;-145.69;100.00;52678.09;5096677;28;20199;-80
2022/11/26 11:00:37;;;;;;;14.83;3.63;;;;;;;-145.69;100.00;52658.28;5096625;28;20592;-79
2022/11/26 11:03:13;;;;;;;9.90;2.53;;;;;;;-145.69;100.00;52691.94;5095925;28;20251;-79
2022/11/26 11:05:41;;;;;;;7.23;2.37;;;;;;;-145.69;100.00;52656.28;5096078;28;20564;-79
2022/11/26 11:08:14;;;;;;;10.83;2.57;;;;;;;-145.69;100.00;52672.13;5095850;28;20198;-79
2022/11/26 11:10:53;;;;;;;9.70;2.37;;;;;;;-145.69;100.00;52693.94;5096465;28;20206;-80
2022/11/26 11:13:20;;;;;;;12.60;2.90;;;;;;;-145.69;100.00;52666.19;5096193;28;20243;-79